createdAt,value
2023-03-30T00:01:12.083Z,53.07
2023-03-30T00:03:47.542Z,52.98
2023-03-30T00:06:23.617Z,53.07
2023-03-30T00:08:57.442Z,53.08
2023-03-30T00:11:27.290Z,53.27
2023-03-30T00:13:55.575Z,53.34
2023-03-30T00:16:23.922Z,53.49
2023-03-30T00:18:52.043Z,53.37
2023-03-30T00:21:21.068Z,53.51
2023-03-30T00:23:50.218Z,53.44
2023-03-30T00:26:18.631Z,53.46
2023-03-30T00:28:46.810Z,53.44
2023-03-30T00:31:14.999Z,53.69
2023-03-30T00:33:47.085Z,53.63
2023-03-30T00:36:16.570Z,53.68
2023-03-30T00:38:46.211Z,53.81
2023-03-30T00:41:15.137Z,53.86
2023-03-30T00:44:42.422Z,53.86
2023-03-30T00:47:10.613Z,53.84
2023-03-30T00:49:39.388Z,53.94
2023-03-30T00:52:10.073Z,54.07
2023-03-30T00:54:39.687Z,54.24
2023-03-30T00:57:08.818Z,54.21
2023-03-30T00:59:37.125Z,54.18
2023-03-30T01:02:06.273Z,54.21
2023-03-30T01:04:37.658Z,54.32
2023-03-30T01:07:07.850Z,54.35
2023-03-30T01:09:36.076Z,54.32
2023-03-30T01:12:05.510Z,54.43
2023-03-30T01:14:34.265Z,54.44
2023-03-30T01:17:16.865Z,54.53
2023-03-30T01:20:13.004Z,54.43
2023-03-30T01:23:04.489Z,54.56
2023-03-30T01:25:57.320Z,54.55
2023-03-30T01:28:41.872Z,54.68
2023-03-30T01:31:43.858Z,54.76
2023-03-30T01:34:43.317Z,54.90
2023-03-30T01:37:50.535Z,54.90
2023-03-30T01:40:27.927Z,54.79
2023-03-30T01:43:05.518Z,54.81
2023-03-30T01:45:47.664Z,54.91
2023-03-30T01:48:45.618Z,54.96
2023-03-30T01:51:27.337Z,55.01
2023-03-30T01:53:59.458Z,55.18
2023-03-30T01:56:31.529Z,55.10
2023-03-30T01:59:12.649Z,55.20
2023-03-30T02:01:43.064Z,55.19
2023-03-30T02:04:12.444Z,55.22
2023-03-30T02:06:48.781Z,55.25
2023-03-30T02:09:22.033Z,55.34
2023-03-30T02:11:53.713Z,55.36
2023-03-30T02:14:27.556Z,55.51
2023-03-30T02:17:03.426Z,55.49
2023-03-30T02:19:31.758Z,55.49
2023-03-30T02:22:01.260Z,55.46
2023-03-30T02:24:32.383Z,55.57
2023-03-30T02:27:04.339Z,55.73
2023-03-30T02:29:37.536Z,55.68
2023-03-30T02:32:06.185Z,55.47
2023-03-30T02:34:43.815Z,55.69
2023-03-30T02:37:34.041Z,55.67
2023-03-30T02:40:14.287Z,55.80
2023-03-30T02:43:03.565Z,55.89
2023-03-30T02:45:58.815Z,55.83
2023-03-30T02:48:30.035Z,55.85
2023-03-30T02:51:13.960Z,55.94
2023-03-30T02:54:36.032Z,55.81
2023-03-30T02:57:43.962Z,55.98
2023-03-30T03:00:43.594Z,56.09
2023-03-30T03:03:21.408Z,56.20
2023-03-30T03:05:56.320Z,56.04
2023-03-30T03:08:35.641Z,56.18
2023-03-30T03:11:04.843Z,56.22
2023-03-30T03:13:36.844Z,56.35
2023-03-30T03:16:08.013Z,56.44
2023-03-30T03:18:40.033Z,56.28
2023-03-30T03:21:09.972Z,56.44
2023-03-30T03:23:38.341Z,56.43
2023-03-30T03:26:12.756Z,56.41
2023-03-30T03:28:40.972Z,56.49
2023-03-30T03:31:09.390Z,56.62
2023-03-30T03:33:37.777Z,56.60
2023-03-30T03:36:17.074Z,56.65
2023-03-30T03:38:52.313Z,56.62
2023-03-30T03:41:20.641Z,56.56
2023-03-30T03:43:48.918Z,56.59
2023-03-30T03:46:18.520Z,56.72
2023-03-30T03:48:47.456Z,56.88
2023-03-30T03:51:15.565Z,56.88
2023-03-30T03:53:43.900Z,56.82
2023-03-30T03:56:14.887Z,56.95
2023-03-30T03:58:43.211Z,56.93
2023-03-30T04:01:14.598Z,56.91
2023-03-30T04:03:42.947Z,57.01
2023-03-30T04:06:11.474Z,57.02
2023-03-30T04:08:39.749Z,57.08
2023-03-30T04:11:27.522Z,57.09
2023-03-30T04:14:19.362Z,57.14
2023-03-30T04:17:15.003Z,57.20
2023-03-30T04:20:12.701Z,57.18
2023-03-30T04:22:57.138Z,57.24
2023-03-30T04:25:29.313Z,57.36
2023-03-30T04:28:35.136Z,57.54
2023-03-30T04:31:24.072Z,57.43
2023-03-30T04:34:09.535Z,57.51
2023-03-30T04:36:37.997Z,57.50
2023-03-30T04:39:30.230Z,57.61
2023-03-30T04:42:14.339Z,57.62
2023-03-30T04:45:07.408Z,57.71
2023-03-30T04:48:10.291Z,57.62
2023-03-30T04:50:57.149Z,57.73
2023-03-30T04:53:34.455Z,57.71
2023-03-30T04:56:22.067Z,57.78
2023-03-30T04:59:03.171Z,57.85
2023-03-30T05:01:50.040Z,57.95
2023-03-30T05:04:32.777Z,57.98
2023-03-30T05:07:19.749Z,58.06
2023-03-30T05:10:02.599Z,58.10
2023-03-30T05:13:00.039Z,58.01
2023-03-30T05:15:55.827Z,58.01
2023-03-30T05:18:39.416Z,58.20
2023-03-30T05:21:10.488Z,58.07
2023-03-30T05:24:17.065Z,58.30
2023-03-30T05:27:00.546Z,58.22
2023-03-30T05:29:55.589Z,58.27
2023-03-30T05:32:44.329Z,58.40
2023-03-30T05:35:38.434Z,58.41
2023-03-30T05:38:07.627Z,58.49
2023-03-30T05:40:54.609Z,58.51
2023-03-30T05:43:42.054Z,58.59
2023-03-30T05:46:10.250Z,58.56
2023-03-30T05:48:51.712Z,58.66
2023-03-30T05:51:42.932Z,58.64
2023-03-30T05:54:30.122Z,58.75
2023-03-30T05:57:17.363Z,58.81
2023-03-30T05:59:55.754Z,58.87
2023-03-30T06:02:40.822Z,58.97
2023-03-30T06:05:14.499Z,58.99
2023-03-30T06:07:45.802Z,58.97
2023-03-30T06:10:14.159Z,59.04
2023-03-30T06:12:43.873Z,59.07
2023-03-30T06:15:24.355Z,59.05
2023-03-30T06:20:56.289Z,59.10
2023-03-30T06:23:25.021Z,59.30
2023-03-30T06:25:55.674Z,59.34
2023-03-30T06:28:29.928Z,59.22
2023-03-30T06:30:58.375Z,59.29
2023-03-30T06:33:27.731Z,59.31
2023-03-30T06:36:01.635Z,59.27
2023-03-30T06:38:30.460Z,59.32
2023-03-30T06:40:58.768Z,59.35
2023-03-30T06:43:28.260Z,59.38
2023-03-30T06:46:03.981Z,59.42
2023-03-30T06:48:32.547Z,59.41
2023-03-30T06:51:26.649Z,59.43
2023-03-30T06:53:54.873Z,59.59
2023-03-30T06:56:23.231Z,59.55
2023-03-30T06:59:05.528Z,59.49
2023-03-30T07:01:37.231Z,59.66
2023-03-30T07:04:35.093Z,59.65
2023-03-30T07:07:23.077Z,59.67
2023-03-30T07:09:51.292Z,59.62
2023-03-30T07:12:19.670Z,59.65
2023-03-30T07:14:48.134Z,59.56
2023-03-30T07:17:16.983Z,59.65
2023-03-30T07:19:45.414Z,59.69
2023-03-30T07:22:14.567Z,59.68
2023-03-30T07:24:43.206Z,59.56
2023-03-30T07:27:11.494Z,59.72
2023-03-30T07:29:43.143Z,59.75
2023-03-30T07:32:11.651Z,59.85
2023-03-30T07:34:40.103Z,59.78
2023-03-30T07:37:08.540Z,59.71
2023-03-30T07:39:38.130Z,59.89
2023-03-30T07:42:06.455Z,59.95
2023-03-30T07:44:35.391Z,59.90
2023-03-30T07:47:07.284Z,59.91
2023-03-30T07:49:36.316Z,59.90
2023-03-30T07:52:04.412Z,60.01
2023-03-30T07:54:51.314Z,59.92
2023-03-30T07:57:24.102Z,59.92
2023-03-30T07:59:52.849Z,60.00
2023-03-30T08:02:42.424Z,60.05
2023-03-30T08:05:13.073Z,59.92
2023-03-30T08:07:49.049Z,60.01
2023-03-30T08:10:21.575Z,60.03
2023-03-30T08:12:49.863Z,60.01
2023-03-30T08:15:18.030Z,60.00
2023-03-30T08:17:46.524Z,59.93
2023-03-30T08:20:15.127Z,59.98
2023-03-30T08:22:43.178Z,59.92
2023-03-30T08:25:12.035Z,60.01
2023-03-30T08:27:40.356Z,59.79
2023-03-30T08:30:08.870Z,59.74
2023-03-30T08:32:37.155Z,59.81
2023-03-30T08:35:05.817Z,59.65
2023-03-30T08:37:33.939Z,59.74
2023-03-30T08:40:02.262Z,59.74
2023-03-30T08:43:18.669Z,59.65
2023-03-30T08:45:47.594Z,59.82
2023-03-30T08:48:29.165Z,59.77
2023-03-30T08:51:31.574Z,59.74
2023-03-30T08:54:02.868Z,59.88
2023-03-30T08:56:40.092Z,59.77
2023-03-30T08:59:27.293Z,59.79
2023-03-30T09:02:04.223Z,59.89
2023-03-30T09:05:02.320Z,59.83
2023-03-30T09:07:37.552Z,59.87
2023-03-30T09:10:12.206Z,59.84
2023-03-30T09:12:48.670Z,59.84
2023-03-30T09:15:25.664Z,59.76
2023-03-30T09:18:11.018Z,60.01
2023-03-30T09:20:40.915Z,60.05
2023-03-30T09:23:14.730Z,59.84
2023-03-30T09:25:51.522Z,59.97
2023-03-30T09:28:44.807Z,60.04
2023-03-30T09:31:36.199Z,59.95
2023-03-30T09:34:35.422Z,60.08
2023-03-30T09:37:13.353Z,60.10
2023-03-30T09:39:42.099Z,59.94
2023-03-30T09:42:45.018Z,60.01
2023-03-30T09:45:34.523Z,60.12
2023-03-30T09:48:09.583Z,60.01
2023-03-30T09:50:46.917Z,60.02
2023-03-30T09:53:27.747Z,59.93
2023-03-30T09:56:07.502Z,59.94
2023-03-30T09:58:36.306Z,59.89
2023-03-30T10:01:13.113Z,59.92
2023-03-30T10:03:43.560Z,59.84
2023-03-30T10:06:13.425Z,59.85
2023-03-30T10:08:51.525Z,59.89
2023-03-30T10:11:22.334Z,59.81
2023-03-30T10:13:51.765Z,59.88
2023-03-30T10:16:28.385Z,59.73
2023-03-30T10:19:01.897Z,59.83
2023-03-30T10:21:52.881Z,59.84
2023-03-30T10:24:23.838Z,59.78
2023-03-30T10:26:58.218Z,59.77
2023-03-30T10:29:28.970Z,59.85
2023-03-30T10:32:08.933Z,59.83
2023-03-30T10:34:43.800Z,59.81
2023-03-30T10:37:16.854Z,59.70
2023-03-30T10:39:48.230Z,59.59
2023-03-30T10:42:23.754Z,59.61
2023-03-30T10:44:55.232Z,59.64
2023-03-30T10:47:54.055Z,59.69
2023-03-30T10:50:30.596Z,59.54
2023-03-30T10:53:07.998Z,59.52
2023-03-30T10:55:39.365Z,59.60
2023-03-30T10:58:20.231Z,59.45
2023-03-30T11:00:54.476Z,59.50
2023-03-30T11:03:27.500Z,59.66
2023-03-30T11:06:19.000Z,59.65
2023-03-30T11:08:50.877Z,59.59
2023-03-30T11:11:28.236Z,59.52
2023-03-30T11:14:02.271Z,59.50
2023-03-30T11:17:12.113Z,59.56
2023-03-30T11:19:47.280Z,59.44
2023-03-30T11:22:32.961Z,59.47
2023-03-30T11:25:07.517Z,59.44
2023-03-30T11:27:46.508Z,59.38
2023-03-30T11:30:40.934Z,59.43
2023-03-30T11:33:32.464Z,59.36
2023-03-30T11:36:03.696Z,59.36
2023-03-30T11:38:57.217Z,59.29
2023-03-30T11:41:38.276Z,59.38
2023-03-30T11:44:09.849Z,59.28
2023-03-30T11:46:47.302Z,59.19
2023-03-30T11:49:24.850Z,59.26
2023-03-30T11:52:11.978Z,59.15
2023-03-30T11:55:01.834Z,59.20
2023-03-30T11:57:43.104Z,59.14
2023-03-30T12:00:23.966Z,59.07
2023-03-30T12:03:24.680Z,59.17
2023-03-30T12:06:00.418Z,59.18
2023-03-30T12:08:53.464Z,59.13
2023-03-30T12:11:31.917Z,59.14
2023-03-30T12:14:01.751Z,59.14
2023-03-30T12:16:40.859Z,59.16
2023-03-30T12:19:29.292Z,59.16
2023-03-30T12:22:04.747Z,59.19
2023-03-30T12:24:39.053Z,59.19
2023-03-30T12:27:11.793Z,59.23
2023-03-30T12:30:01.828Z,59.18
2023-03-30T12:32:31.455Z,59.17
2023-03-30T12:35:00.102Z,59.22
2023-03-30T12:37:36.300Z,59.15
2023-03-30T12:40:20.998Z,59.14
2023-03-30T12:43:19.091Z,59.15
2023-03-30T12:46:02.520Z,59.05
2023-03-30T12:48:30.817Z,59.06
2023-03-30T12:51:11.586Z,59.09
2023-03-30T12:54:19.103Z,59.05
2023-03-30T12:57:10.716Z,59.16
2023-03-30T13:00:07.565Z,59.27
2023-03-30T13:02:36.954Z,59.34
2023-03-30T13:05:24.403Z,59.28
2023-03-30T13:07:55.757Z,59.28
2023-03-30T13:10:29.949Z,59.34
2023-03-30T13:13:01.686Z,59.36
2023-03-30T13:15:29.722Z,59.49
2023-03-30T13:18:04.077Z,59.42
2023-03-30T13:20:47.523Z,59.51
2023-03-30T13:23:15.934Z,59.60
2023-03-30T13:25:49.723Z,59.63
2023-03-30T13:28:46.176Z,59.65
2023-03-30T13:31:29.729Z,59.70
2023-03-30T13:34:17.166Z,59.79
2023-03-30T13:37:00.101Z,59.89
2023-03-30T13:40:09.402Z,59.94
2023-03-30T13:42:49.714Z,60.21
2023-03-30T13:45:43.312Z,60.36
2023-03-30T13:48:39.663Z,60.47
2023-03-30T13:51:14.351Z,60.58
2023-03-30T13:53:49.609Z,60.70
2023-03-30T13:56:19.672Z,60.68
2023-03-30T13:58:54.804Z,60.64
2023-03-30T14:01:24.612Z,60.80
2023-03-30T14:04:03.321Z,60.98
2023-03-30T14:06:34.518Z,61.05
2023-03-30T14:09:05.787Z,61.21
2023-03-30T14:12:02.681Z,61.30
2023-03-30T14:14:41.823Z,61.54
2023-03-30T14:17:22.152Z,61.68
2023-03-30T14:20:21.024Z,61.88
2023-03-30T14:22:50.498Z,61.95
2023-03-30T14:25:25.730Z,62.12
2023-03-30T14:27:56.893Z,62.35
2023-03-30T14:30:31.880Z,62.27
2023-03-30T14:33:09.056Z,62.47
2023-03-30T14:35:44.306Z,62.55
2023-03-30T14:38:25.789Z,62.70
2023-03-30T14:40:54.869Z,62.85
2023-03-30T14:43:25.916Z,62.81
2023-03-30T14:45:56.828Z,62.93
2023-03-30T14:48:31.638Z,63.02
2023-03-30T14:51:02.686Z,63.02
2023-03-30T14:53:31.521Z,63.28
2023-03-30T14:56:01.092Z,63.12
2023-03-30T14:58:32.931Z,63.26
2023-03-30T15:01:06.161Z,63.39
2023-03-30T15:03:38.504Z,63.39
2023-03-30T15:06:08.165Z,63.45
2023-03-30T15:08:40.988Z,63.57
2023-03-30T15:11:13.191Z,63.68
2023-03-30T15:13:48.397Z,63.77
2023-03-30T15:16:22.188Z,63.87
2023-03-30T15:18:53.311Z,63.92
2023-03-30T15:21:21.969Z,63.85
2023-03-30T15:23:51.183Z,63.94
2023-03-30T15:26:19.737Z,64.09
2023-03-30T15:28:57.837Z,64.08
2023-03-30T15:31:28.173Z,64.18
2023-03-30T15:33:59.896Z,64.23
2023-03-30T15:36:34.195Z,64.18
2023-03-30T15:39:03.721Z,64.23
2023-03-30T15:41:54.998Z,64.34
2023-03-30T15:44:23.297Z,64.45
2023-03-30T15:46:55.685Z,64.42
2023-03-30T15:49:31.462Z,64.55
2023-03-30T15:52:02.112Z,64.53
2023-03-30T15:54:38.941Z,64.69
2023-03-30T15:57:14.804Z,64.73
2023-03-30T15:59:52.258Z,64.79
2023-03-30T16:02:38.370Z,64.79
2023-03-30T16:05:16.716Z,64.86
2023-03-30T16:07:45.495Z,64.89
2023-03-30T16:10:20.802Z,64.99
2023-03-30T16:12:49.710Z,65.08
2023-03-30T16:15:21.805Z,65.26
2023-03-30T16:17:51.777Z,65.25
2023-03-30T16:20:25.742Z,65.25
2023-03-30T16:22:54.368Z,65.34
2023-03-30T16:25:41.752Z,65.43
2023-03-30T16:28:17.942Z,65.49
2023-03-30T16:30:50.127Z,65.61
2023-03-30T16:33:18.570Z,65.71
2023-03-30T16:35:46.712Z,65.87
2023-03-30T16:38:17.877Z,65.92
2023-03-30T16:40:50.714Z,65.99
2023-03-30T16:43:19.042Z,66.10
2023-03-30T16:45:47.236Z,66.12
2023-03-30T16:48:16.406Z,66.17
2023-03-30T16:50:52.439Z,66.17
2023-03-30T16:53:20.934Z,66.32
2023-03-30T16:55:49.524Z,66.31
2023-03-30T16:58:17.603Z,66.43
2023-03-30T17:00:48.832Z,66.51
2023-03-30T17:03:19.031Z,66.54
2023-03-30T17:05:51.493Z,66.54
2023-03-30T17:08:23.622Z,66.72
2023-03-30T17:10:53.508Z,66.76
2023-03-30T17:13:22.355Z,66.80
2023-03-30T17:15:50.989Z,66.92
2023-03-30T17:18:26.288Z,66.92
2023-03-30T17:20:56.856Z,66.98
2023-03-30T17:23:28.010Z,67.10
2023-03-30T17:25:59.370Z,67.22
2023-03-30T17:28:30.175Z,67.18
2023-03-30T17:31:01.683Z,67.25
2023-03-30T17:33:32.186Z,67.36
2023-03-30T17:36:04.307Z,67.43
2023-03-30T17:38:32.919Z,67.45
2023-03-30T17:41:01.581Z,67.53
2023-03-30T17:43:29.811Z,67.64
2023-03-30T17:45:58.591Z,67.60
2023-03-30T17:48:27.558Z,67.76
2023-03-30T17:50:55.787Z,67.72
2023-03-30T17:53:23.976Z,67.74
2023-03-30T17:55:55.310Z,67.85
2023-03-30T17:58:32.928Z,67.79
2023-03-30T18:01:04.231Z,67.95
2023-03-30T18:03:34.581Z,68.03
2023-03-30T18:06:03.274Z,68.14
2023-03-30T18:08:31.624Z,68.17
2023-03-30T18:11:00.989Z,68.00
2023-03-30T18:13:30.571Z,68.16
2023-03-30T18:16:00.861Z,68.16
2023-03-30T18:18:31.166Z,68.29
2023-03-30T18:21:05.076Z,68.37
2023-03-30T18:23:34.585Z,68.37
2023-03-30T18:26:10.337Z,68.46
2023-03-30T18:28:44.102Z,68.37
2023-03-30T18:31:13.133Z,68.52
2023-03-30T18:33:41.643Z,68.60
2023-03-30T18:36:12.948Z,68.54
2023-03-30T18:38:42.600Z,68.66
2023-03-30T18:41:12.936Z,68.75
2023-03-30T18:43:41.111Z,68.64
2023-03-30T18:46:13.196Z,68.74
2023-03-30T18:48:41.381Z,68.78
2023-03-30T18:51:12.255Z,68.79
2023-03-30T18:53:41.531Z,68.86
2023-03-30T18:56:12.435Z,68.98
2023-03-30T18:58:42.211Z,68.93
2023-03-30T19:01:13.563Z,68.92
2023-03-30T19:03:42.902Z,68.94
2023-03-30T19:06:16.459Z,69.03
2023-03-30T19:08:44.719Z,69.00
2023-03-30T19:11:18.598Z,69.06
2023-03-30T19:13:47.325Z,69.15
2023-03-30T19:16:18.876Z,69.19
2023-03-30T19:18:49.419Z,69.21
2023-03-30T19:21:18.728Z,69.26
2023-03-30T19:23:47.022Z,69.25
2023-03-30T19:26:15.823Z,69.22
2023-03-30T19:28:44.413Z,69.22
2023-03-30T19:31:16.041Z,69.32
2023-03-30T19:33:44.547Z,69.36
2023-03-30T19:36:13.098Z,69.33
2023-03-30T19:38:44.096Z,69.47
2023-03-30T19:41:12.785Z,69.49
2023-03-30T19:43:42.631Z,69.46
2023-03-30T19:46:12.116Z,69.53
2023-03-30T19:52:02.803Z,69.59
2023-03-30T19:54:31.464Z,69.75
2023-03-30T19:56:59.712Z,69.69
2023-03-30T19:59:28.873Z,69.69
2023-03-30T20:01:57.434Z,69.61
2023-03-30T20:04:25.709Z,69.78
2023-03-30T20:09:49.452Z,69.74
2023-03-30T20:12:17.561Z,69.80
2023-03-30T20:14:46.074Z,69.88
2023-03-30T20:52:14.947Z,69.36
2023-03-30T20:54:44.409Z,69.31
2023-03-30T20:57:12.604Z,69.42
2023-03-30T20:59:41.314Z,69.58
2023-03-30T21:02:11.680Z,69.61
2023-03-30T21:04:39.990Z,69.69
2023-03-30T21:07:10.946Z,69.58
2023-03-30T21:09:40.091Z,69.70
2023-03-30T21:12:09.771Z,69.84
2023-03-30T21:14:38.000Z,69.82
2023-03-30T21:17:06.251Z,69.87
2023-03-30T21:19:34.556Z,69.95
2023-03-30T21:22:02.770Z,69.90
2023-03-30T21:24:31.439Z,70.07
2023-03-30T21:26:59.680Z,70.14
2023-03-30T21:29:28.175Z,70.19
2023-03-30T21:31:57.802Z,70.27
2023-03-30T21:34:26.100Z,70.25
2023-03-30T21:36:54.403Z,70.24
2023-03-30T21:39:23.927Z,70.18
2023-03-30T21:41:52.070Z,70.39
2023-03-30T21:44:20.402Z,70.29
2023-03-30T21:46:48.650Z,70.26
2023-03-30T21:49:17.258Z,70.38
2023-03-30T21:51:46.135Z,70.46
2023-03-30T21:54:14.929Z,70.45
2023-03-30T21:56:46.178Z,70.45
2023-03-30T21:59:14.320Z,70.51
2023-03-30T22:01:42.640Z,70.58
2023-03-30T22:04:10.962Z,70.68
2023-03-30T22:06:39.454Z,70.74
2023-03-30T22:09:07.753Z,70.76
2023-03-30T22:11:36.050Z,70.62
2023-03-30T22:14:04.273Z,70.62
2023-03-30T22:16:33.314Z,70.76
2023-03-30T22:19:01.906Z,70.74
2023-03-30T22:21:34.640Z,70.90
2023-03-30T22:24:06.763Z,70.84
2023-03-30T22:26:35.707Z,70.81
2023-03-30T22:29:05.444Z,70.83
2023-03-30T22:31:33.997Z,70.96
2023-03-30T22:34:02.366Z,70.88
2023-03-30T22:36:31.396Z,71.05
2023-03-30T22:39:01.802Z,70.90
2023-03-30T22:41:30.560Z,71.01
2023-03-30T22:43:59.227Z,71.10
2023-03-30T22:46:28.134Z,71.12
2023-03-30T22:48:56.551Z,71.04
2023-03-30T22:51:28.217Z,70.99
2023-03-30T22:53:58.699Z,71.03
2023-03-30T22:56:29.387Z,70.94
2023-03-30T22:58:59.974Z,70.93
2023-03-30T23:01:32.650Z,70.93
2023-03-30T23:04:01.314Z,70.79
2023-03-30T23:06:29.660Z,70.85
2023-03-30T23:08:57.980Z,70.78
2023-03-30T23:11:26.505Z,70.74
2023-03-30T23:13:55.865Z,70.55
2023-03-30T23:16:24.384Z,70.68
2023-03-30T23:18:52.621Z,70.60
2023-03-30T23:21:22.373Z,70.64
2023-03-30T23:23:51.126Z,70.46
2023-03-30T23:26:19.745Z,70.57
2023-03-30T23:28:48.227Z,70.58
2023-03-30T23:31:17.818Z,70.47
2023-03-30T23:33:46.301Z,70.42
2023-03-30T23:36:17.387Z,70.51
2023-03-30T23:38:46.780Z,70.45
2023-03-30T23:41:18.290Z,70.38
2023-03-30T23:43:47.024Z,70.32
2023-03-30T23:46:16.031Z,70.35
2023-03-30T23:48:44.658Z,70.22
2023-03-30T23:51:12.895Z,70.19
2023-03-30T23:53:41.774Z,70.13
2023-03-30T23:56:17.570Z,70.18
2023-03-30T23:58:46.648Z,70.30
